Virtual Norwegian is not affiliated with Norwegian Air Shuttle in any way.
If you are looking for the real "Norwegian", or you wish to book Norwegian flights, please visit Norwegian.com


We use cookies to ensure you get the best experience on our website.   ACCEPT

LDSP - SPU - Split (Split)

General Info Alternate Airport
ICAO: LDSP Elevation: 79 ft ICAO: LDDU
IATA: SPU Country: Croatia IATA: DBV
City: Split Charts: Log in to view charts City: Dubrovnik
Name: Split Hub: No Name Dubrovnik
General Info
ICAO: LDSP
IATA: SPU
City: Split
Name: Split
Elevation: 79 ft
Country: Croatia
Charts: Log in to view charts
Hub: No
 
Alternate Airport
ICAO: LDDU
IATA: DBV
City: Dubrovnik
Name: Dubrovnik

Weather
151030Z 10006KT 040V140 9999 FEW060 30/15 Q1011 NOSIG
Weather
151030Z 10006KT 040V140 9999 FEW060 30/15 Q1011 NOSIG

Runway Info
05
Length ILS/LOC Course
2550 m 110.50 050
23
Length ILS/LOC Heading
2550 m N/A 233

NOTAMs
NOTAMs currently unavailable.
NOTAMs
NOTAMs currently unavailable

Route map
Airport
Airport (hub)